sensor_id;sensor_type;location;lat;lon;timestamp;temperature;humidity
31263;DHT22;17892;52.080;9.006;2024-02-14T00:00:06;7.30;99.90
31263;DHT22;17892;52.080;9.006;2024-02-14T00:02:45;7.30;99.90
31263;DHT22;17892;52.080;9.006;2024-02-14T00:05:11;7.30;99.90
31263;DHT22;17892;52.080;9.006;2024-02-14T00:07:37;7.30;99.90
31263;DHT22;17892;52.080;9.006;2024-02-14T00:10:05;7.20;99.90
31263;DHT22;17892;52.080;9.006;2024-02-14T00:12:34;7.20;99.90
31263;DHT22;17892;52.080;9.006;2024-02-14T00:15:04;7.20;99.90
31263;DHT22;17892;52.080;9.006;2024-02-14T00:17:33;7.20;99.90
31263;DHT22;17892;52.080;9.006;2024-02-14T00:20:03;7.20;99.90
31263;DHT22;17892;52.080;9.006;2024-02-14T00:22:30;7.20;99.90
31263;DHT22;17892;52.080;9.006;2024-02-14T00:24:56;7.20;99.90
31263;DHT22;17892;52.080;9.006;2024-02-14T00:27:21;7.20;99.90
31263;DHT22;17892;52.080;9.006;2024-02-14T00:29:47;7.20;99.90
31263;DHT22;17892;52.080;9.006;2024-02-14T00:32:13;7.20;99.90
31263;DHT22;17892;52.080;9.006;2024-02-14T00:34:39;7.20;99.90
31263;DHT22;17892;52.080;9.006;2024-02-14T00:37:05;7.20;99.90
31263;DHT22;17892;52.080;9.006;2024-02-14T00:39:30;7.20;99.90
31263;DHT22;17892;52.080;9.006;2024-02-14T00:41:56;7.20;99.90
31263;DHT22;17892;52.080;9.006;2024-02-14T00:44:22;7.20;99.90
31263;DHT22;17892;52.080;9.006;2024-02-14T00:46:48;7.20;99.90
31263;DHT22;17892;52.080;9.006;2024-02-14T00:49:15;7.10;99.90
31263;DHT22;17892;52.080;9.006;2024-02-14T00:51:41;7.20;99.90
31263;DHT22;17892;52.080;9.006;2024-02-14T00:54:07;7.20;99.90
31263;DHT22;17892;52.080;9.006;2024-02-14T00:56:33;7.20;99.90
31263;DHT22;17892;52.080;9.006;2024-02-14T00:59:00;7.30;99.90
31263;DHT22;17892;52.080;9.006;2024-02-14T01:01:26;7.30;99.90
31263;DHT22;17892;52.080;9.006;2024-02-14T01:03:52;7.40;99.90
31263;DHT22;17892;52.080;9.006;2024-02-14T01:06:17;7.50;99.90
31263;DHT22;17892;52.080;9.006;2024-02-14T01:08:44;7.60;99.90
31263;DHT22;17892;52.080;9.006;2024-02-14T01:11:09;7.60;99.90
31263;DHT22;17892;52.080;9.006;2024-02-14T01:13:35;7.70;99.90
31263;DHT22;17892;52.080;9.006;2024-02-14T01:16:03;7.70;99.90
31263;DHT22;17892;52.080;9.006;2024-02-14T01:18:32;7.80;99.90
31263;DHT22;17892;52.080;9.006;2024-02-14T01:20:57;7.80;99.90
31263;DHT22;17892;52.080;9.006;2024-02-14T01:23:26;7.80;99.90
31263;DHT22;17892;52.080;9.006;2024-02-14T01:25:51;7.90;99.90
31263;DHT22;17892;52.080;9.006;2024-02-14T01:28:20;8.00;99.90
31263;DHT22;17892;52.080;9.006;2024-02-14T01:30:46;8.00;99.90
31263;DHT22;17892;52.080;9.006;2024-02-14T01:33:11;8.00;99.90
31263;DHT22;17892;52.080;9.006;2024-02-14T01:35:37;8.10;99.90
31263;DHT22;17892;52.080;9.006;2024-02-14T01:38:03;8.10;99.90
31263;DHT22;17892;52.080;9.006;2024-02-14T01:40:30;8.10;99.90
31263;DHT22;17892;52.080;9.006;2024-02-14T01:42:56;8.10;99.90
31263;DHT22;17892;52.080;9.006;2024-02-14T01:45:22;8.20;99.90
31263;DHT22;17892;52.080;9.006;2024-02-14T01:47:48;8.20;99.90
31263;DHT22;17892;52.080;9.006;2024-02-14T01:50:15;8.30;99.90
31263;DHT22;17892;52.080;9.006;2024-02-14T01:52:41;8.30;99.90
31263;DHT22;17892;52.080;9.006;2024-02-14T01:55:12;8.30;99.90
31263;DHT22;17892;52.080;9.006;2024-02-14T01:57:39;8.40;99.90
31263;DHT22;17892;52.080;9.006;2024-02-14T02:00:06;8.40;99.90
31263;DHT22;17892;52.080;9.006;2024-02-14T02:02:35;8.40;99.90
31263;DHT22;17892;52.080;9.006;2024-02-14T02:05:05;8.30;99.90
31263;DHT22;17892;52.080;9.006;2024-02-14T02:07:32;8.30;99.90
31263;DHT22;17892;52.080;9.006;2024-02-14T02:09:58;8.20;99.90
31263;DHT22;17892;52.080;9.006;2024-02-14T02:12:24;8.10;99.90
31263;DHT22;17892;52.080;9.006;2024-02-14T02:14:53;8.10;99.90
31263;DHT22;17892;52.080;9.006;2024-02-14T02:17:19;8.00;99.90
31263;DHT22;17892;52.080;9.006;2024-02-14T02:19:47;8.00;99.90
31263;DHT22;17892;52.080;9.006;2024-02-14T02:22:12;7.90;99.90
31263;DHT22;17892;52.080;9.006;2024-02-14T02:24:38;7.90;99.90
31263;DHT22;17892;52.080;9.006;2024-02-14T02:27:05;7.90;99.90
31263;DHT22;17892;52.080;9.006;2024-02-14T02:29:30;7.90;99.90
31263;DHT22;17892;52.080;9.006;2024-02-14T02:31:58;7.90;99.90
31263;DHT22;17892;52.080;9.006;2024-02-14T02:34:23;7.80;99.90
31263;DHT22;17892;52.080;9.006;2024-02-14T02:36:49;7.80;99.90
31263;DHT22;17892;52.080;9.006;2024-02-14T02:39:16;7.70;99.90
31263;DHT22;17892;52.080;9.006;2024-02-14T02:41:42;7.70;99.90
31263;DHT22;17892;52.080;9.006;2024-02-14T02:44:08;7.70;99.90
31263;DHT22;17892;52.080;9.006;2024-02-14T02:46:33;7.60;99.90
31263;DHT22;17892;52.080;9.006;2024-02-14T02:48:59;7.60;99.90
31263;DHT22;17892;52.080;9.006;2024-02-14T02:51:25;7.60;99.90
31263;DHT22;17892;52.080;9.006;2024-02-14T02:53:51;7.60;99.90
31263;DHT22;17892;52.080;9.006;2024-02-14T02:56:19;7.60;99.90
31263;DHT22;17892;52.080;9.006;2024-02-14T02:58:47;7.60;99.90
31263;DHT22;17892;52.080;9.006;2024-02-14T03:01:13;7.60;99.90
31263;DHT22;17892;52.080;9.006;2024-02-14T03:03:40;7.60;99.90
31263;DHT22;17892;52.080;9.006;2024-02-14T03:06:06;7.60;99.90
31263;DHT22;17892;52.080;9.006;2024-02-14T03:08:33;7.60;99.90
31263;DHT22;17892;52.080;9.006;2024-02-14T03:11:04;7.60;99.90
31263;DHT22;17892;52.080;9.006;2024-02-14T03:13:31;7.60;99.90
31263;DHT22;17892;52.080;9.006;2024-02-14T03:15:57;7.60;99.90
31263;DHT22;17892;52.080;9.006;2024-02-14T03:18:24;7.60;99.90
31263;DHT22;17892;52.080;9.006;2024-02-14T03:20:50;7.60;99.90
31263;DHT22;17892;52.080;9.006;2024-02-14T03:23:16;7.60;99.90
31263;DHT22;17892;52.080;9.006;2024-02-14T03:25:41;7.50;99.90
31263;DHT22;17892;52.080;9.006;2024-02-14T03:28:08;7.60;99.90
31263;DHT22;17892;52.080;9.006;2024-02-14T03:30:37;7.60;99.90
31263;DHT22;17892;52.080;9.006;2024-02-14T03:33:04;7.60;99.90
31263;DHT22;17892;52.080;9.006;2024-02-14T03:35:33;7.60;99.90
31263;DHT22;17892;52.080;9.006;2024-02-14T03:38:01;7.60;99.90
31263;DHT22;17892;52.080;9.006;2024-02-14T03:40:27;7.60;99.90
31263;DHT22;17892;52.080;9.006;2024-02-14T03:42:58;7.60;99.90
31263;DHT22;17892;52.080;9.006;2024-02-14T03:45:23;7.60;99.90
31263;DHT22;17892;52.080;9.006;2024-02-14T03:47:50;7.60;99.90
31263;DHT22;17892;52.080;9.006;2024-02-14T03:50:16;7.70;99.90
31263;DHT22;17892;52.080;9.006;2024-02-14T03:52:41;7.70;99.90
31263;DHT22;17892;52.080;9.006;2024-02-14T03:55:11;7.70;99.90
31263;DHT22;17892;52.080;9.006;2024-02-14T03:57:39;7.70;99.90
31263;DHT22;17892;52.080;9.006;2024-02-14T04:00:06;7.70;99.90
31263;DHT22;17892;52.080;9.006;2024-02-14T04:02:34;7.80;99.90
31263;DHT22;17892;52.080;9.006;2024-02-14T04:05:00;7.80;99.90
31263;DHT22;17892;52.080;9.006;2024-02-14T04:07:27;7.80;99.90
31263;DHT22;17892;52.080;9.006;2024-02-14T04:09:56;7.70;99.90
31263;DHT22;17892;52.080;9.006;2024-02-14T04:12:22;7.80;99.90
31263;DHT22;17892;52.080;9.006;2024-02-14T04:14:48;7.80;99.90
31263;DHT22;17892;52.080;9.006;2024-02-14T04:17:14;7.80;99.90
31263;DHT22;17892;52.080;9.006;2024-02-14T04:19:39;7.80;99.90
31263;DHT22;17892;52.080;9.006;2024-02-14T04:22:05;7.80;99.90
31263;DHT22;17892;52.080;9.006;2024-02-14T04:24:35;7.80;99.90
31263;DHT22;17892;52.080;9.006;2024-02-14T04:27:01;7.80;99.90
31263;DHT22;17892;52.080;9.006;2024-02-14T04:29:30;7.80;99.90
31263;DHT22;17892;52.080;9.006;2024-02-14T04:32:02;7.80;99.90
31263;DHT22;17892;52.080;9.006;2024-02-14T04:34:28;7.80;99.90
31263;DHT22;17892;52.080;9.006;2024-02-14T04:36:55;7.90;99.90
31263;DHT22;17892;52.080;9.006;2024-02-14T04:39:22;7.90;99.90
31263;DHT22;17892;52.080;9.006;2024-02-14T04:41:47;7.90;99.90
31263;DHT22;17892;52.080;9.006;2024-02-14T04:44:15;7.90;99.90
31263;DHT22;17892;52.080;9.006;2024-02-14T04:46:41;7.90;99.90
31263;DHT22;17892;52.080;9.006;2024-02-14T04:49:09;8.00;99.90
31263;DHT22;17892;52.080;9.006;2024-02-14T04:51:35;8.00;99.90
31263;DHT22;17892;52.080;9.006;2024-02-14T04:54:01;8.00;99.90
31263;DHT22;17892;52.080;9.006;2024-02-14T04:56:27;8.00;99.90
31263;DHT22;17892;52.080;9.006;2024-02-14T04:58:53;8.00;99.90
31263;DHT22;17892;52.080;9.006;2024-02-14T05:01:20;8.10;99.90
31263;DHT22;17892;52.080;9.006;2024-02-14T05:03:46;8.10;99.90
31263;DHT22;17892;52.080;9.006;2024-02-14T05:06:12;8.10;99.90
31263;DHT22;17892;52.080;9.006;2024-02-14T05:08:37;8.10;99.90
31263;DHT22;17892;52.080;9.006;2024-02-14T05:11:03;8.20;99.90
31263;DHT22;17892;52.080;9.006;2024-02-14T05:13:30;8.20;99.90
31263;DHT22;17892;52.080;9.006;2024-02-14T05:15:56;8.20;99.90
31263;DHT22;17892;52.080;9.006;2024-02-14T05:18:22;8.30;99.90
31263;DHT22;17892;52.080;9.006;2024-02-14T05:20:47;8.30;99.90
31263;DHT22;17892;52.080;9.006;2024-02-14T05:23:13;8.30;99.90
31263;DHT22;17892;52.080;9.006;2024-02-14T05:25:39;8.30;99.90
31263;DHT22;17892;52.080;9.006;2024-02-14T05:28:05;8.30;99.90
31263;DHT22;17892;52.080;9.006;2024-02-14T05:30:31;8.40;99.90
31263;DHT22;17892;52.080;9.006;2024-02-14T05:32:57;8.40;99.90
31263;DHT22;17892;52.080;9.006;2024-02-14T05:35:23;8.40;99.90
31263;DHT22;17892;52.080;9.006;2024-02-14T05:37:49;8.40;99.90
31263;DHT22;17892;52.080;9.006;2024-02-14T05:40:15;8.50;99.90
31263;DHT22;17892;52.080;9.006;2024-02-14T05:42:41;8.50;99.90
31263;DHT22;17892;52.080;9.006;2024-02-14T05:45:07;8.60;99.90
31263;DHT22;17892;52.080;9.006;2024-02-14T05:47:35;8.60;99.90
31263;DHT22;17892;52.080;9.006;2024-02-14T05:50:01;8.60;99.90
31263;DHT22;17892;52.080;9.006;2024-02-14T05:52:27;8.70;99.90
31263;DHT22;17892;52.080;9.006;2024-02-14T05:54:52;8.80;99.90
31263;DHT22;17892;52.080;9.006;2024-02-14T05:57:19;8.80;99.90
31263;DHT22;17892;52.080;9.006;2024-02-14T05:59:45;8.80;99.90
31263;DHT22;17892;52.080;9.006;2024-02-14T06:02:11;8.90;99.90
31263;DHT22;17892;52.080;9.006;2024-02-14T06:04:37;9.00;99.90
31263;DHT22;17892;52.080;9.006;2024-02-14T06:07:02;9.00;99.90
31263;DHT22;17892;52.080;9.006;2024-02-14T06:09:30;9.00;99.90
31263;DHT22;17892;52.080;9.006;2024-02-14T06:11:56;9.10;99.90
31263;DHT22;17892;52.080;9.006;2024-02-14T06:14:22;9.10;99.90
31263;DHT22;17892;52.080;9.006;2024-02-14T06:16:48;9.10;99.90
31263;DHT22;17892;52.080;9.006;2024-02-14T06:19:14;9.20;99.90
31263;DHT22;17892;52.080;9.006;2024-02-14T06:21:40;9.20;99.90
31263;DHT22;17892;52.080;9.006;2024-02-14T06:24:05;9.20;99.90
31263;DHT22;17892;52.080;9.006;2024-02-14T06:26:31;9.30;99.90
31263;DHT22;17892;52.080;9.006;2024-02-14T06:28:58;9.30;99.90
31263;DHT22;17892;52.080;9.006;2024-02-14T06:31:24;9.40;99.90
31263;DHT22;17892;52.080;9.006;2024-02-14T06:33:50;9.40;99.90
31263;DHT22;17892;52.080;9.006;2024-02-14T06:36:15;9.40;99.90
31263;DHT22;17892;52.080;9.006;2024-02-14T06:38:41;9.40;99.90
31263;DHT22;17892;52.080;9.006;2024-02-14T06:41:07;9.50;99.90
31263;DHT22;17892;52.080;9.006;2024-02-14T06:43:32;9.50;99.90
31263;DHT22;17892;52.080;9.006;2024-02-14T06:45:58;9.50;99.90
31263;DHT22;17892;52.080;9.006;2024-02-14T06:48:24;9.60;99.90
31263;DHT22;17892;52.080;9.006;2024-02-14T06:50:53;9.60;99.90
31263;DHT22;17892;52.080;9.006;2024-02-14T06:53:18;9.60;99.90
31263;DHT22;17892;52.080;9.006;2024-02-14T06:55:44;9.60;99.90
31263;DHT22;17892;52.080;9.006;2024-02-14T06:58:10;9.70;99.90
31263;DHT22;17892;52.080;9.006;2024-02-14T07:00:36;9.70;99.90
31263;DHT22;17892;52.080;9.006;2024-02-14T07:03:02;9.70;99.90
31263;DHT22;17892;52.080;9.006;2024-02-14T07:05:28;9.70;99.90
31263;DHT22;17892;52.080;9.006;2024-02-14T07:07:55;9.70;99.90
31263;DHT22;17892;52.080;9.006;2024-02-14T07:10:21;9.70;99.90
31263;DHT22;17892;52.080;9.006;2024-02-14T07:12:47;9.80;99.90
31263;DHT22;17892;52.080;9.006;2024-02-14T07:15:12;9.80;99.90
31263;DHT22;17892;52.080;9.006;2024-02-14T07:17:38;9.80;99.90
31263;DHT22;17892;52.080;9.006;2024-02-14T07:20:05;9.80;99.90
31263;DHT22;17892;52.080;9.006;2024-02-14T07:22:34;9.80;99.90
31263;DHT22;17892;52.080;9.006;2024-02-14T07:25:00;9.80;99.90
31263;DHT22;17892;52.080;9.006;2024-02-14T07:27:25;9.90;99.90
31263;DHT22;17892;52.080;9.006;2024-02-14T07:29:52;9.90;99.90
31263;DHT22;17892;52.080;9.006;2024-02-14T07:32:18;9.90;99.90
31263;DHT22;17892;52.080;9.006;2024-02-14T07:34:44;10.00;99.90
31263;DHT22;17892;52.080;9.006;2024-02-14T07:37:09;9.90;99.90
31263;DHT22;17892;52.080;9.006;2024-02-14T07:39:35;10.00;99.90
31263;DHT22;17892;52.080;9.006;2024-02-14T07:42:02;10.00;99.90
31263;DHT22;17892;52.080;9.006;2024-02-14T07:44:28;10.00;99.90
31263;DHT22;17892;52.080;9.006;2024-02-14T07:46:53;10.00;99.90
31263;DHT22;17892;52.080;9.006;2024-02-14T07:49:19;10.00;99.90
31263;DHT22;17892;52.080;9.006;2024-02-14T07:51:45;10.10;99.90
31263;DHT22;17892;52.080;9.006;2024-02-14T07:54:11;10.10;99.90
31263;DHT22;17892;52.080;9.006;2024-02-14T07:56:37;10.10;99.90
31263;DHT22;17892;52.080;9.006;2024-02-14T07:59:02;10.10;99.90
31263;DHT22;17892;52.080;9.006;2024-02-14T08:01:30;10.20;99.90
31263;DHT22;17892;52.080;9.006;2024-02-14T08:03:56;10.20;99.90
31263;DHT22;17892;52.080;9.006;2024-02-14T08:06:22;10.20;99.90
31263;DHT22;17892;52.080;9.006;2024-02-14T08:08:48;10.20;99.90
31263;DHT22;17892;52.080;9.006;2024-02-14T08:11:17;10.20;99.90
31263;DHT22;17892;52.080;9.006;2024-02-14T08:13:43;10.30;99.90
31263;DHT22;17892;52.080;9.006;2024-02-14T08:16:08;10.30;99.90
31263;DHT22;17892;52.080;9.006;2024-02-14T08:18:34;10.30;99.90
31263;DHT22;17892;52.080;9.006;2024-02-14T08:21:00;10.30;99.90
31263;DHT22;17892;52.080;9.006;2024-02-14T08:23:26;10.40;99.90
31263;DHT22;17892;52.080;9.006;2024-02-14T08:25:52;10.40;99.90
31263;DHT22;17892;52.080;9.006;2024-02-14T08:28:17;10.40;99.90
31263;DHT22;17892;52.080;9.006;2024-02-14T08:30:44;10.40;99.90
31263;DHT22;17892;52.080;9.006;2024-02-14T08:33:10;10.40;99.90
31263;DHT22;17892;52.080;9.006;2024-02-14T08:35:36;10.50;99.90
31263;DHT22;17892;52.080;9.006;2024-02-14T08:38:02;10.50;99.90
31263;DHT22;17892;52.080;9.006;2024-02-14T08:40:27;10.50;99.90
31263;DHT22;17892;52.080;9.006;2024-02-14T08:42:53;10.50;99.90
31263;DHT22;17892;52.080;9.006;2024-02-14T08:45:19;10.60;99.90
31263;DHT22;17892;52.080;9.006;2024-02-14T08:47:45;10.60;99.90
31263;DHT22;17892;52.080;9.006;2024-02-14T08:50:11;10.60;99.90
31263;DHT22;17892;52.080;9.006;2024-02-14T08:52:37;10.60;99.90
31263;DHT22;17892;52.080;9.006;2024-02-14T08:55:06;10.60;99.90
31263;DHT22;17892;52.080;9.006;2024-02-14T08:57:37;10.60;99.90
31263;DHT22;17892;52.080;9.006;2024-02-14T09:00:03;10.70;99.90
31263;DHT22;17892;52.080;9.006;2024-02-14T09:02:29;10.70;99.90
31263;DHT22;17892;52.080;9.006;2024-02-14T09:04:55;10.70;99.90
31263;DHT22;17892;52.080;9.006;2024-02-14T09:07:21;10.70;99.90
31263;DHT22;17892;52.080;9.006;2024-02-14T09:09:46;10.80;99.90
31263;DHT22;17892;52.080;9.006;2024-02-14T09:12:13;10.80;99.90
31263;DHT22;17892;52.080;9.006;2024-02-14T09:14:38;10.80;99.90
31263;DHT22;17892;52.080;9.006;2024-02-14T09:17:04;10.80;99.90
31263;DHT22;17892;52.080;9.006;2024-02-14T09:19:30;10.90;99.90
31263;DHT22;17892;52.080;9.006;2024-02-14T09:21:56;10.80;99.90
31263;DHT22;17892;52.080;9.006;2024-02-14T09:24:21;10.80;99.90
31263;DHT22;17892;52.080;9.006;2024-02-14T09:26:47;10.90;99.90
31263;DHT22;17892;52.080;9.006;2024-02-14T09:29:13;10.90;99.90
31263;DHT22;17892;52.080;9.006;2024-02-14T09:31:40;10.90;99.90
31263;DHT22;17892;52.080;9.006;2024-02-14T09:34:06;10.90;99.90
31263;DHT22;17892;52.080;9.006;2024-02-14T09:36:33;10.90;99.90
31263;DHT22;17892;52.080;9.006;2024-02-14T09:38:58;11.00;99.90
31263;DHT22;17892;52.080;9.006;2024-02-14T09:41:33;11.00;99.90
31263;DHT22;17892;52.080;9.006;2024-02-14T09:44:02;11.10;99.90
31263;DHT22;17892;52.080;9.006;2024-02-14T09:46:29;11.10;99.90
31263;DHT22;17892;52.080;9.006;2024-02-14T09:48:56;11.10;99.90
31263;DHT22;17892;52.080;9.006;2024-02-14T09:51:25;11.10;99.90
31263;DHT22;17892;52.080;9.006;2024-02-14T09:53:51;11.10;99.90
31263;DHT22;17892;52.080;9.006;2024-02-14T09:56:19;11.20;99.90
31263;DHT22;17892;52.080;9.006;2024-02-14T09:58:49;11.20;99.90
31263;DHT22;17892;52.080;9.006;2024-02-14T10:01:21;11.20;99.90
31263;DHT22;17892;52.080;9.006;2024-02-14T10:03:50;11.20;99.90
31263;DHT22;17892;52.080;9.006;2024-02-14T10:06:17;11.20;99.90
31263;DHT22;17892;52.080;9.006;2024-02-14T10:08:48;11.30;99.90
31263;DHT22;17892;52.080;9.006;2024-02-14T10:11:19;11.30;99.90
31263;DHT22;17892;52.080;9.006;2024-02-14T10:13:49;11.30;99.90
31263;DHT22;17892;52.080;9.006;2024-02-14T10:16:16;11.30;99.90
31263;DHT22;17892;52.080;9.006;2024-02-14T10:18:44;11.30;99.90
31263;DHT22;17892;52.080;9.006;2024-02-14T10:21:15;11.40;99.90
31263;DHT22;17892;52.080;9.006;2024-02-14T10:23:45;11.40;99.90
31263;DHT22;17892;52.080;9.006;2024-02-14T10:26:15;11.40;99.90
31263;DHT22;17892;52.080;9.006;2024-02-14T10:28:44;11.40;99.90
31263;DHT22;17892;52.080;9.006;2024-02-14T10:31:11;11.50;99.90
31263;DHT22;17892;52.080;9.006;2024-02-14T10:33:38;11.50;99.90
31263;DHT22;17892;52.080;9.006;2024-02-14T10:36:07;11.50;99.90
31263;DHT22;17892;52.080;9.006;2024-02-14T10:38:34;11.50;99.90
31263;DHT22;17892;52.080;9.006;2024-02-14T10:41:01;11.50;99.90
31263;DHT22;17892;52.080;9.006;2024-02-14T10:43:27;11.50;99.90
31263;DHT22;17892;52.080;9.006;2024-02-14T10:45:54;11.50;99.90
31263;DHT22;17892;52.080;9.006;2024-02-14T10:48:24;11.50;99.90
31263;DHT22;17892;52.080;9.006;2024-02-14T10:50:53;11.50;99.90
31263;DHT22;17892;52.080;9.006;2024-02-14T10:53:20;11.60;99.90
31263;DHT22;17892;52.080;9.006;2024-02-14T10:55:51;11.60;99.90
31263;DHT22;17892;52.080;9.006;2024-02-14T10:58:19;11.60;99.90
31263;DHT22;17892;52.080;9.006;2024-02-14T11:00:46;11.60;99.90
31263;DHT22;17892;52.080;9.006;2024-02-14T11:03:12;11.60;99.90
31263;DHT22;17892;52.080;9.006;2024-02-14T11:05:46;11.70;99.90
31263;DHT22;17892;52.080;9.006;2024-02-14T11:08:20;11.60;99.90
31263;DHT22;17892;52.080;9.006;2024-02-14T11:10:58;11.70;99.90
31263;DHT22;17892;52.080;9.006;2024-02-14T11:13:28;11.70;99.90
31263;DHT22;17892;52.080;9.006;2024-02-14T11:16:00;11.70;99.90
31263;DHT22;17892;52.080;9.006;2024-02-14T11:18:31;11.80;99.90
31263;DHT22;17892;52.080;9.006;2024-02-14T11:20:58;11.70;99.90
31263;DHT22;17892;52.080;9.006;2024-02-14T11:23:24;11.80;99.90
31263;DHT22;17892;52.080;9.006;2024-02-14T11:26:15;11.80;99.90
31263;DHT22;17892;52.080;9.006;2024-02-14T11:28:40;11.80;99.90
31263;DHT22;17892;52.080;9.006;2024-02-14T11:31:07;11.80;99.90
31263;DHT22;17892;52.080;9.006;2024-02-14T11:33:35;11.90;99.90
31263;DHT22;17892;52.080;9.006;2024-02-14T11:36:08;11.90;99.90
31263;DHT22;17892;52.080;9.006;2024-02-14T11:38:37;11.90;99.90
31263;DHT22;17892;52.080;9.006;2024-02-14T11:41:05;11.90;99.90
31263;DHT22;17892;52.080;9.006;2024-02-14T11:43:32;11.90;99.90
31263;DHT22;17892;52.080;9.006;2024-02-14T11:45:58;12.00;99.90
31263;DHT22;17892;52.080;9.006;2024-02-14T11:48:24;12.00;99.90
31263;DHT22;17892;52.080;9.006;2024-02-14T11:50:52;12.00;99.90
31263;DHT22;17892;52.080;9.006;2024-02-14T11:53:18;12.10;99.90
31263;DHT22;17892;52.080;9.006;2024-02-14T11:55:45;12.10;99.90
31263;DHT22;17892;52.080;9.006;2024-02-14T11:58:13;12.20;99.90
31263;DHT22;17892;52.080;9.006;2024-02-14T12:00:46;12.20;99.90
31263;DHT22;17892;52.080;9.006;2024-02-14T12:03:15;12.20;99.90
31263;DHT22;17892;52.080;9.006;2024-02-14T12:05:42;12.20;99.90
31263;DHT22;17892;52.080;9.006;2024-02-14T12:08:09;12.20;99.90
31263;DHT22;17892;52.080;9.006;2024-02-14T12:10:36;12.20;99.90
31263;DHT22;17892;52.080;9.006;2024-02-14T12:13:09;12.20;99.90
31263;DHT22;17892;52.080;9.006;2024-02-14T12:15:41;12.20;99.90
31263;DHT22;17892;52.080;9.006;2024-02-14T12:18:10;12.20;99.90
31263;DHT22;17892;52.080;9.006;2024-02-14T12:20:38;12.20;99.90
31263;DHT22;17892;52.080;9.006;2024-02-14T12:23:04;12.20;99.90
31263;DHT22;17892;52.080;9.006;2024-02-14T12:25:33;12.20;99.90
31263;DHT22;17892;52.080;9.006;2024-02-14T12:27:59;12.20;99.90
31263;DHT22;17892;52.080;9.006;2024-02-14T12:30:51;12.20;99.90
31263;DHT22;17892;52.080;9.006;2024-02-14T12:33:21;12.20;99.90
31263;DHT22;17892;52.080;9.006;2024-02-14T12:35:50;12.20;99.90
31263;DHT22;17892;52.080;9.006;2024-02-14T12:38:19;12.20;99.90
31263;DHT22;17892;52.080;9.006;2024-02-14T12:40:45;12.20;99.90
31263;DHT22;17892;52.080;9.006;2024-02-14T12:43:12;12.20;99.90
31263;DHT22;17892;52.080;9.006;2024-02-14T12:45:40;12.20;99.90
31263;DHT22;17892;52.080;9.006;2024-02-14T12:48:07;12.20;99.90
31263;DHT22;17892;52.080;9.006;2024-02-14T12:50:34;12.20;99.90
31263;DHT22;17892;52.080;9.006;2024-02-14T12:53:01;12.20;99.90
31263;DHT22;17892;52.080;9.006;2024-02-14T12:55:27;12.20;99.90
31263;DHT22;17892;52.080;9.006;2024-02-14T12:57:54;12.20;99.90
31263;DHT22;17892;52.080;9.006;2024-02-14T13:00:21;12.30;99.90
31263;DHT22;17892;52.080;9.006;2024-02-14T13:02:50;12.30;99.90
31263;DHT22;17892;52.080;9.006;2024-02-14T13:05:16;12.30;99.90
31263;DHT22;17892;52.080;9.006;2024-02-14T13:07:43;12.30;99.90
31263;DHT22;17892;52.080;9.006;2024-02-14T13:10:09;12.30;99.90
31263;DHT22;17892;52.080;9.006;2024-02-14T13:12:36;12.20;99.90
31263;DHT22;17892;52.080;9.006;2024-02-14T13:15:04;12.20;99.90
31263;DHT22;17892;52.080;9.006;2024-02-14T13:17:30;12.20;99.90
31263;DHT22;17892;52.080;9.006;2024-02-14T13:19:56;12.30;99.90
31263;DHT22;17892;52.080;9.006;2024-02-14T13:22:22;12.30;99.90
31263;DHT22;17892;52.080;9.006;2024-02-14T13:24:48;12.30;99.90
31263;DHT22;17892;52.080;9.006;2024-02-14T13:27:14;12.30;99.90
31263;DHT22;17892;52.080;9.006;2024-02-14T13:29:40;12.30;99.90
31263;DHT22;17892;52.080;9.006;2024-02-14T13:32:06;12.30;99.90
31263;DHT22;17892;52.080;9.006;2024-02-14T13:34:33;12.30;99.90
31263;DHT22;17892;52.080;9.006;2024-02-14T13:37:00;12.30;99.90
31263;DHT22;17892;52.080;9.006;2024-02-14T13:39:26;12.30;99.90
31263;DHT22;17892;52.080;9.006;2024-02-14T13:41:51;12.30;99.90
31263;DHT22;17892;52.080;9.006;2024-02-14T13:44:18;12.40;99.90
31263;DHT22;17892;52.080;9.006;2024-02-14T13:46:45;12.40;99.90
31263;DHT22;17892;52.080;9.006;2024-02-14T13:49:11;12.30;99.90
31263;DHT22;17892;52.080;9.006;2024-02-14T13:51:40;12.40;99.90
31263;DHT22;17892;52.080;9.006;2024-02-14T13:54:06;12.40;99.90
31263;DHT22;17892;52.080;9.006;2024-02-14T13:56:32;12.40;99.90
31263;DHT22;17892;52.080;9.006;2024-02-14T13:58:58;12.30;99.90
31263;DHT22;17892;52.080;9.006;2024-02-14T14:01:24;12.40;99.90
31263;DHT22;17892;52.080;9.006;2024-02-14T14:03:52;12.40;99.90
31263;DHT22;17892;52.080;9.006;2024-02-14T14:06:20;12.40;99.90
31263;DHT22;17892;52.080;9.006;2024-02-14T14:08:46;12.40;99.90
31263;DHT22;17892;52.080;9.006;2024-02-14T14:11:12;12.40;99.90
31263;DHT22;17892;52.080;9.006;2024-02-14T14:13:37;12.40;99.90
31263;DHT22;17892;52.080;9.006;2024-02-14T14:16:04;12.40;99.90
31263;DHT22;17892;52.080;9.006;2024-02-14T14:18:31;12.50;99.90
31263;DHT22;17892;52.080;9.006;2024-02-14T14:20:57;12.40;99.90
31263;DHT22;17892;52.080;9.006;2024-02-14T14:23:23;12.50;99.90
31263;DHT22;17892;52.080;9.006;2024-02-14T14:25:49;12.50;99.90
31263;DHT22;17892;52.080;9.006;2024-02-14T14:28:16;12.50;99.90
31263;DHT22;17892;52.080;9.006;2024-02-14T14:30:42;12.50;99.90
31263;DHT22;17892;52.080;9.006;2024-02-14T14:33:09;12.50;99.90
31263;DHT22;17892;52.080;9.006;2024-02-14T14:35:36;12.50;99.90
31263;DHT22;17892;52.080;9.006;2024-02-14T14:38:03;12.50;99.90
31263;DHT22;17892;52.080;9.006;2024-02-14T14:40:29;12.60;99.90
31263;DHT22;17892;52.080;9.006;2024-02-14T14:42:55;12.60;99.90
31263;DHT22;17892;52.080;9.006;2024-02-14T14:45:21;12.60;99.90
31263;DHT22;17892;52.080;9.006;2024-02-14T14:47:46;12.60;99.90
31263;DHT22;17892;52.080;9.006;2024-02-14T14:50:12;12.60;99.90
31263;DHT22;17892;52.080;9.006;2024-02-14T14:52:38;12.60;99.90
31263;DHT22;17892;52.080;9.006;2024-02-14T14:55:07;12.60;99.90
31263;DHT22;17892;52.080;9.006;2024-02-14T14:57:33;12.60;99.90
31263;DHT22;17892;52.080;9.006;2024-02-14T15:00:09;12.60;99.90
31263;DHT22;17892;52.080;9.006;2024-02-14T15:02:39;12.60;99.90
31263;DHT22;17892;52.080;9.006;2024-02-14T15:05:08;12.70;99.90
31263;DHT22;17892;52.080;9.006;2024-02-14T15:07:35;12.70;99.90
31263;DHT22;17892;52.080;9.006;2024-02-14T15:10:01;12.70;99.90
31263;DHT22;17892;52.080;9.006;2024-02-14T15:12:27;12.70;99.90
31263;DHT22;17892;52.080;9.006;2024-02-14T15:14:52;12.60;99.90
31263;DHT22;17892;52.080;9.006;2024-02-14T15:17:19;12.70;99.90
31263;DHT22;17892;52.080;9.006;2024-02-14T15:19:46;12.70;99.90
31263;DHT22;17892;52.080;9.006;2024-02-14T15:22:11;12.70;99.90
31263;DHT22;17892;52.080;9.006;2024-02-14T15:24:39;12.70;99.90
31263;DHT22;17892;52.080;9.006;2024-02-14T15:27:08;12.70;99.90
31263;DHT22;17892;52.080;9.006;2024-02-14T15:29:36;12.70;99.90
31263;DHT22;17892;52.080;9.006;2024-02-14T15:32:21;12.70;99.90
31263;DHT22;17892;52.080;9.006;2024-02-14T15:35:05;12.70;99.90